Maldives Meteorological Service

SYNOP

Station Code SYNOP
43555
AAXX 23124 43555 12475 72506 10300 20255 30094 40096 60002 82908 333 10325 58001 81818 81919 87277=
43533
AAXX 23124 43533 11465 82707 10276 20246 30089 40091 60162 70298 8397/ 333 10302 59002 82817 81918 87361=
43577
AAXX 23124 43577 12470 42310 10284 20241 30101 40103 69922 84942 333 10320 58004 83818 81919=
43588
AAXX 23124 43588 12470 32704 10298 20244 30095 40096 60002 82202 333 10310 59002 82818=
43599
AAXX 23124 43599 11462 72305 10292 20261 30097 40099 69902 70282 82202 333 10316 59003 82818 86077=
Last Updated : 2017-06-23 16:59:59